Time;durP1;ratioP1;P1;durP2;ratioP2;P2;SDS_P1;SDS_P2;PMS_P1;PMS_P2;Temp;Humidity;BMP_temperature;BMP_pressure;BME280_temperature;BME280_humidity;BME280_pressure;Samples;Min_cycle;Max_cycle;Signal;HPM_P1;HPM_P2
2021/05/13 00:00:58;;;;;;;38.03;25.00;;;15.50;99.90;;;;;;4350676;28;658695;-72
2021/05/13 00:03:46;;;;;;;42.10;25.50;;;15.40;99.90;;;;;;4376411;28;659025;-71
2021/05/13 00:06:34;;;;;;;38.23;24.43;;;15.40;99.90;;;;;;4347271;28;659173;-71
2021/05/13 00:09:21;;;;;;;37.60;24.97;;;15.40;99.90;;;;;;4374786;28;658753;-71
2021/05/13 00:12:14;;;;;;;39.97;24.00;;;15.40;99.90;;;;;;4351501;28;658778;-72
2021/05/13 00:15:05;;;;;;;39.10;24.67;;;15.40;99.90;;;;;;4353378;28;658577;-71
2021/05/13 00:17:52;;;;;;;35.92;24.80;;;15.40;99.90;;;;;;4345632;28;658338;-73
2021/05/13 00:20:42;;;;;;;39.83;25.87;;;15.40;99.90;;;;;;4378964;28;658864;-71
2021/05/13 00:23:29;;;;;;;38.07;24.47;;;15.40;99.90;;;;;;4353775;28;658684;-72
2021/05/13 00:26:23;;;;;;;41.13;24.83;;;15.40;99.90;;;;;;4372936;28;658754;-71
2021/05/13 00:29:11;;;;;;;35.33;24.20;;;15.40;99.90;;;;;;4353154;28;659071;-71
2021/05/13 00:31:58;;;;;;;44.87;26.23;;;15.40;99.90;;;;;;4369998;28;658729;-72
2021/05/13 00:34:45;;;;;;;44.23;26.13;;;15.40;99.90;;;;;;4432206;28;658893;-72
2021/05/13 00:37:32;;;;;;;40.70;26.40;;;15.30;99.90;;;;;;4410687;28;658486;-72
2021/05/13 00:40:20;;;;;;;43.43;27.97;;;15.30;99.90;;;;;;4421634;28;658138;-71
2021/05/13 00:43:07;;;;;;;39.83;25.87;;;15.30;99.90;;;;;;4408015;28;658884;-73
2021/05/13 00:45:54;;;;;;;46.17;28.40;;;15.30;99.90;;;;;;4429020;28;659454;-71
2021/05/13 00:48:43;;;;;;;47.03;29.00;;;15.30;99.90;;;;;;4424395;28;658583;-71
2021/05/13 00:51:30;;;;;;;44.53;28.63;;;15.20;99.90;;;;;;4406190;28;659508;-71
2021/05/13 00:54:18;;;;;;;48.67;28.15;;;15.10;99.90;;;;;;4410242;28;659141;-73
2021/05/13 00:57:07;;;;;;;49.17;30.90;;;15.20;99.90;;;;;;4430312;28;658796;-71
2021/05/13 00:59:59;;;;;;;48.90;28.53;;;15.10;99.90;;;;;;4391076;28;659874;-71
2021/05/13 01:02:47;;;;;;;50.33;30.53;;;15.00;99.90;;;;;;4386816;28;658526;-71
2021/05/13 01:05:35;;;;;;;50.67;28.60;;;14.90;99.90;;;;;;4378597;28;659854;-71
2021/05/13 01:08:22;;;;;;;47.87;28.00;;;14.80;99.90;;;;;;4404960;28;658451;-73
2021/05/13 01:11:11;;;;;;;56.13;30.73;;;14.80;99.90;;;;;;4411919;28;659137;-71
2021/05/13 01:14:02;;;;;;;49.67;30.13;;;14.80;99.90;;;;;;4388962;28;658808;-71
2021/05/13 01:16:53;;;;;;;48.60;29.50;;;14.80;99.90;;;;;;4388762;28;659080;-72
2021/05/13 01:19:40;;;;;;;48.33;28.93;;;14.80;99.90;;;;;;4392445;28;659052;-71
2021/05/13 01:22:28;;;;;;;45.03;26.30;;;14.80;99.90;;;;;;4397583;28;660199;-73
2021/05/13 01:25:15;;;;;;;49.80;28.63;;;14.80;99.90;;;;;;4412010;28;658721;-71
2021/05/13 01:28:02;;;;;;;46.77;27.97;;;14.80;99.90;;;;;;4387219;28;659068;-73
2021/05/13 01:30:50;;;;;;;45.77;28.20;;;14.70;99.90;;;;;;4411393;28;658808;-70
2021/05/13 01:33:41;;;;;;;50.58;27.17;;;14.70;99.90;;;;;;4396524;28;658564;-73
2021/05/13 01:36:28;;;;;;;43.43;27.67;;;14.70;99.90;;;;;;4391500;28;658952;-72
2021/05/13 01:39:16;;;;;;;39.23;25.63;;;14.70;99.90;;;;;;4413529;28;659613;-71
2021/05/13 01:42:03;;;;;;;43.03;26.63;;;14.70;99.90;;;;;;4392550;28;658330;-71
2021/05/13 01:44:50;;;;;;;42.17;24.33;;;14.70;99.90;;;;;;4404384;28;659239;-71
2021/05/13 01:47:37;;;;;;;44.13;24.60;;;14.70;99.90;;;;;;4398371;28;658598;-73
2021/05/13 01:50:24;;;;;;;39.22;23.15;;;14.70;99.90;;;;;;4407034;28;658296;-72
2021/05/13 01:53:11;;;;;;;37.50;22.65;;;14.70;99.90;;;;;;4405986;28;658166;-71
2021/05/13 01:55:59;;;;;;;42.17;23.47;;;14.60;99.90;;;;;;4385350;28;659531;-71
2021/05/13 01:58:46;;;;;;;35.27;22.67;;;14.70;99.90;;;;;;4406938;28;658533;-71
2021/05/13 02:01:33;;;;;;;36.40;21.93;;;14.70;99.90;;;;;;4409648;28;659034;-71
2021/05/13 02:04:20;;;;;;;34.37;21.70;;;14.80;99.90;;;;;;4428859;28;659592;-71
2021/05/13 02:07:07;;;;;;;34.80;21.23;;;14.80;99.90;;;;;;4401981;28;658780;-72
2021/05/13 02:09:54;;;;;;;32.17;21.03;;;14.80;99.90;;;;;;4420971;28;660036;-72
2021/05/13 02:12:42;;;;;;;33.80;21.00;;;14.70;99.90;;;;;;4420342;28;659638;-71
2021/05/13 02:15:29;;;;;;;33.60;20.80;;;14.80;99.90;;;;;;4410003;28;659930;-71
2021/05/13 02:18:16;;;;;;;33.50;20.73;;;14.80;99.90;;;;;;4420755;28;658405;-71
2021/05/13 02:21:03;;;;;;;36.13;20.47;;;14.80;99.90;;;;;;4401280;28;658708;-71
2021/05/13 02:23:50;;;;;;;43.63;21.27;;;14.80;99.90;;;;;;4427320;28;658890;-71
2021/05/13 02:26:37;;;;;;;38.20;19.93;;;14.70;99.90;;;;;;4401523;28;658765;-72
2021/05/13 02:29:25;;;;;;;41.90;21.47;;;14.70;99.90;;;;;;4426840;28;658754;-71
2021/05/13 02:32:12;;;;;;;37.47;20.90;;;14.80;99.90;;;;;;4413554;28;658728;-73
2021/05/13 02:34:59;;;;;;;39.53;22.27;;;14.80;99.90;;;;;;4420779;28;658727;-72
2021/05/13 02:37:46;;;;;;;36.10;20.97;;;14.80;99.90;;;;;;4420114;28;659110;-71
2021/05/13 02:40:33;;;;;;;37.30;19.93;;;14.90;99.90;;;;;;4401807;28;658902;-71
2021/05/13 02:43:21;;;;;;;34.93;21.33;;;14.90;99.90;;;;;;4431997;28;659405;-70
2021/05/13 02:46:08;;;;;;;26.37;15.53;;;14.90;99.90;;;;;;4408940;28;659333;-72
2021/05/13 02:48:55;;;;;;;27.67;13.13;;;14.80;99.90;;;;;;4428992;28;659306;-71
2021/05/13 02:51:42;;;;;;;17.93;10.43;;;14.70;99.90;;;;;;4403942;28;659037;-72
2021/05/13 02:54:29;;;;;;;19.40;10.20;;;14.60;99.90;;;;;;4435290;28;658281;-72
2021/05/13 02:57:16;;;;;;;15.37;9.57;;;14.60;99.90;;;;;;4430757;28;658801;-71
2021/05/13 03:00:16;;;;;;;18.87;9.80;;;14.50;99.90;;;;;;4414064;28;657845;-71
2021/05/13 03:03:05;;;;;;;17.20;10.07;;;14.50;99.90;;;;;;4408766;28;658167;-71
2021/05/13 03:05:54;;;;;;;15.77;9.77;;;14.50;99.90;;;;;;4425808;28;658414;-71
2021/05/13 03:08:41;;;;;;;19.10;9.93;;;14.40;99.90;;;;;;4400797;28;657223;-71
2021/05/13 03:11:28;;;;;;;20.60;9.77;;;14.40;99.90;;;;;;4413275;28;657729;-71
2021/05/13 03:14:16;;;;;;;17.43;9.77;;;14.30;99.90;;;;;;4432483;28;658061;-71
2021/05/13 03:17:03;;;;;;;20.33;9.57;;;14.30;99.90;;;;;;4402483;28;657743;-71
2021/05/13 03:19:56;;;;;;;16.00;8.90;;;14.30;99.90;;;;;;4424120;28;658201;-71
2021/05/13 03:22:43;;;;;;;16.37;8.53;;;14.20;99.90;;;;;;4406233;28;657569;-71
2021/05/13 03:25:35;;;;;;;19.13;8.17;;;14.20;99.90;;;;;;4435983;28;657680;-72
2021/05/13 03:28:22;;;;;;;13.07;7.60;;;14.20;99.90;;;;;;4393249;28;657676;-73
2021/05/13 03:31:09;;;;;;;20.23;7.40;;;14.20;99.90;;;;;;4424910;28;657773;-71
2021/05/13 03:33:56;;;;;;;14.20;7.13;;;14.20;99.90;;;;;;4425492;28;657942;-71
2021/05/13 03:36:44;;;;;;;9.47;6.70;;;14.10;99.90;;;;;;4404894;28;658136;-71
2021/05/13 03:39:30;;;;;;;15.73;7.40;;;14.00;99.90;;;;;;4433217;28;657665;-71
2021/05/13 03:42:17;;;;;;;16.27;7.07;;;14.10;99.90;;;;;;4412088;28;658279;-72
2021/05/13 03:45:06;;;;;;;11.60;7.17;;;14.10;99.90;;;;;;4427277;28;659014;-71
2021/05/13 03:47:53;;;;;;;14.73;7.50;;;14.10;99.90;;;;;;4412747;28;657861;-71
2021/05/13 03:50:40;;;;;;;19.23;6.63;;;14.10;99.90;;;;;;4426582;28;657781;-70
2021/05/13 03:53:28;;;;;;;12.53;6.73;;;14.10;99.90;;;;;;4427981;28;657398;-73
2021/05/13 03:56:15;;;;;;;16.73;6.60;;;14.10;99.90;;;;;;4434832;28;658121;-71
2021/05/13 03:59:08;;;;;;;15.57;6.63;;;14.10;99.90;;;;;;4422880;28;658092;-72
2021/05/13 04:02:05;;;;;;;10.10;6.37;;;14.00;99.90;;;;;;4409688;28;658603;-71
2021/05/13 04:04:52;;;;;;;13.63;6.33;;;14.00;99.90;;;;;;4408861;28;658317;-71
2021/05/13 04:07:39;;;;;;;10.67;6.73;;;14.00;99.90;;;;;;4413021;28;657622;-70
2021/05/13 04:10:27;;;;;;;9.60;6.23;;;14.10;99.90;;;;;;4434494;28;657143;-72
2021/05/13 04:13:15;;;;;;;9.83;6.20;;;14.10;99.90;;;;;;4408473;28;658204;-71
2021/05/13 04:16:06;;;;;;;11.57;6.20;;;14.00;99.90;;;;;;4432927;28;656393;-71
2021/05/13 04:18:53;;;;;;;12.57;6.20;;;14.00;99.90;;;;;;4412750;28;657670;-70
2021/05/13 04:21:40;;;;;;;14.30;6.80;;;14.00;99.90;;;;;;4435412;28;658892;-71
2021/05/13 04:24:27;;;;;;;9.73;5.90;;;14.10;99.90;;;;;;4424834;28;657712;-72
2021/05/13 04:27:15;;;;;;;9.33;5.70;;;14.10;99.90;;;;;;4432589;28;656244;-71
2021/05/13 04:30:02;;;;;;;14.43;5.90;;;14.20;99.90;;;;;;4422485;28;656956;-72
2021/05/13 04:32:49;;;;;;;11.37;6.20;;;14.30;99.90;;;;;;4435133;28;657133;-71
2021/05/13 04:35:36;;;;;;;12.17;5.90;;;14.40;99.90;;;;;;4430612;28;657107;-70
2021/05/13 04:38:23;;;;;;;9.83;5.83;;;14.40;99.90;;;;;;4400886;28;657485;-71
2021/05/13 04:41:10;;;;;;;9.53;5.70;;;14.40;99.90;;;;;;4430256;28;656622;-71
2021/05/13 04:43:58;;;;;;;10.43;6.20;;;14.40;99.90;;;;;;4427580;28;657332;-72
2021/05/13 04:46:45;;;;;;;10.00;5.93;;;14.40;99.90;;;;;;4433518;28;658357;-71
2021/05/13 04:49:32;;;;;;;12.93;5.60;;;14.50;99.90;;;;;;4411562;28;657576;-73
2021/05/13 04:52:20;;;;;;;13.70;5.33;;;14.50;99.90;;;;;;4421388;28;657951;-71
2021/05/13 04:55:09;;;;;;;11.63;5.80;;;14.60;99.90;;;;;;4420728;28;657658;-73
2021/05/13 04:57:56;;;;;;;15.97;6.10;;;14.60;99.90;;;;;;4426096;28;657910;-71
2021/05/13 05:00:44;;;;;;;15.57;6.30;;;14.60;99.90;;;;;;4404027;28;658233;-71
2021/05/13 05:03:31;;;;;;;9.00;5.60;;;14.70;99.90;;;;;;4430569;28;657911;-71
2021/05/13 05:06:18;;;;;;;9.67;5.40;;;14.70;99.90;;;;;;4400990;28;656654;-71
2021/05/13 05:09:06;;;;;;;19.33;5.80;;;14.70;99.90;;;;;;4425501;28;656889;-71
2021/05/13 05:11:53;;;;;;;12.50;5.20;;;14.90;99.90;;;;;;4409691;28;657535;-71
2021/05/13 05:14:40;;;;;;;11.63;5.33;;;15.00;99.90;;;;;;4434642;28;658003;-71
2021/05/13 05:17:28;;;;;;;13.07;5.50;;;15.10;99.90;;;;;;4421771;28;657680;-73
2021/05/13 05:20:15;;;;;;;12.33;5.73;;;15.20;99.90;;;;;;4430301;28;658899;-71
2021/05/13 05:23:02;;;;;;;13.57;5.67;;;15.40;99.90;;;;;;4403444;28;658249;-71
2021/05/13 05:25:50;;;;;;;11.95;5.63;;;15.50;99.90;;;;;;4434001;28;657585;-70
2021/05/13 05:28:37;;;;;;;14.97;5.70;;;15.80;99.90;;;;;;4427914;28;658084;-73
2021/05/13 05:31:24;;;;;;;10.60;5.45;;;15.90;99.90;;;;;;4433945;28;657410;-70
2021/05/13 05:34:12;;;;;;;10.20;5.37;;;16.20;99.90;;;;;;4432496;28;657371;-70
2021/05/13 05:36:59;;;;;;;11.07;5.57;;;16.30;99.90;;;;;;4403258;28;658634;-71
2021/05/13 05:39:46;;;;;;;14.80;5.83;;;16.40;99.90;;;;;;4428643;28;657396;-71
2021/05/13 05:42:33;;;;;;;12.43;5.30;;;16.50;99.90;;;;;;4402975;28;657813;-71
2021/05/13 05:45:20;;;;;;;15.77;6.00;;;16.60;99.90;;;;;;4425266;28;658070;-71
2021/05/13 05:48:08;;;;;;;10.83;5.90;;;16.70;99.90;;;;;;4403305;28;657713;-71
2021/05/13 05:50:56;;;;;;;11.53;6.00;;;16.80;99.90;;;;;;4426769;28;658381;-71
2021/05/13 05:53:43;;;;;;;15.07;5.47;;;17.00;99.90;;;;;;4407284;28;657497;-71
2021/05/13 05:56:30;;;;;;;13.13;5.60;;;17.10;99.90;;;;;;4434165;28;658510;-71
2021/05/13 05:59:17;;;;;;;10.83;5.33;;;17.10;99.90;;;;;;4416156;28;658648;-73
2021/05/13 06:02:04;;;;;;;14.60;5.97;;;17.20;99.90;;;;;;4429568;28;658167;-71
2021/05/13 06:04:52;;;;;;;15.27;5.53;;;17.30;99.90;;;;;;4430135;28;657420;-70
2021/05/13 06:07:40;;;;;;;11.30;5.60;;;17.40;99.90;;;;;;4407121;28;657893;-70
2021/05/13 06:10:27;;;;;;;19.60;5.73;;;17.70;99.90;;;;;;4418370;28;657499;-72
2021/05/13 06:13:14;;;;;;;10.60;5.43;;;17.80;99.90;;;;;;4433845;28;657651;-67
2021/05/13 06:16:01;;;;;;;8.67;5.23;;;17.90;99.90;;;;;;4427255;28;657141;-66
2021/05/13 06:18:52;;;;;;;6.60;4.87;;;17.80;99.90;;;;;;4411202;28;656287;-67
2021/05/13 06:21:39;;;;;;;10.27;5.10;;;17.80;99.90;;;;;;4412455;28;657470;-66
2021/05/13 06:24:27;;;;;;;9.43;5.33;;;17.70;99.90;;;;;;4432666;28;657835;-66
2021/05/13 06:27:14;;;;;;;7.80;5.40;;;17.70;99.90;;;;;;4410743;28;657693;-66
2021/05/13 06:30:01;;;;;;;16.80;5.73;;;17.80;99.90;;;;;;4422921;28;656567;-66
2021/05/13 06:32:48;;;;;;;17.37;6.70;;;17.60;99.90;;;;;;4414150;28;657602;-67
2021/05/13 06:35:35;;;;;;;18.67;6.47;;;17.60;99.90;;;;;;4433243;28;658638;-66
2021/05/13 06:38:22;;;;;;;14.67;6.60;;;17.60;99.90;;;;;;4418026;28;657435;-68
2021/05/13 06:41:10;;;;;;;13.77;6.40;;;17.60;99.90;;;;;;4427372;28;657621;-66
2021/05/13 06:43:57;;;;;;;19.37;6.23;;;17.60;99.90;;;;;;4418326;28;657412;-67
2021/05/13 06:46:44;;;;;;;16.90;6.90;;;17.70;99.90;;;;;;4432610;28;657860;-66
2021/05/13 06:49:31;;;;;;;12.77;6.50;;;17.50;99.90;;;;;;4426707;28;657441;-66
2021/05/13 06:52:18;;;;;;;16.33;7.43;;;17.60;99.90;;;;;;4414261;28;657809;-67
2021/05/13 06:55:06;;;;;;;15.50;7.07;;;17.60;99.90;;;;;;4427407;28;657940;-66
2021/05/13 06:57:54;;;;;;;12.73;6.40;;;17.80;99.90;;;;;;4414510;28;658114;-67
2021/05/13 07:00:41;;;;;;;17.13;7.23;;;18.00;99.90;;;;;;4430340;28;657469;-66
2021/05/13 07:03:27;;;;;;;15.00;7.17;;;18.30;99.90;;;;;;4413512;28;657744;-66
2021/05/13 07:06:14;;;;;;;18.00;7.73;;;18.30;99.90;;;;;;4425870;28;658459;-66
2021/05/13 07:09:01;;;;;;;15.98;7.65;;;18.50;99.90;;;;;;4430715;28;657160;-67
2021/05/13 07:11:48;;;;;;;16.93;8.07;;;18.50;99.90;;;;;;4411916;28;657547;-66
2021/05/13 07:14:37;;;;;;;21.23;10.60;;;18.30;99.90;;;;;;4427836;28;658128;-66
2021/05/13 07:17:24;;;;;;;29.70;12.27;;;18.30;99.90;;;;;;4409378;28;658697;-66
2021/05/13 07:20:12;;;;;;;23.83;9.73;;;18.30;99.90;;;;;;4434342;28;658721;-66
2021/05/13 07:22:59;;;;;;;24.20;10.63;;;18.50;99.90;;;;;;4395385;28;658710;-66
2021/05/13 07:25:47;;;;;;;24.17;12.10;;;18.30;99.90;;;;;;4423919;28;658654;-66
2021/05/13 07:28:34;;;;;;;22.73;11.53;;;18.20;99.90;;;;;;4406566;28;660217;-66
2021/05/13 07:31:22;;;;;;;26.90;12.97;;;18.40;99.90;;;;;;4426605;28;658272;-66
2021/05/13 07:34:09;;;;;;;32.23;15.30;;;18.40;99.90;;;;;;4411751;28;660373;-66
2021/05/13 07:36:56;;;;;;;29.03;14.23;;;18.40;99.90;;;;;;4424333;28;658097;-67
2021/05/13 07:39:43;;;;;;;33.43;19.07;;;18.50;99.90;;;;;;4406051;28;659323;-66
2021/05/13 07:42:30;;;;;;;30.33;15.53;;;18.70;99.90;;;;;;4435277;28;659033;-66
2021/05/13 07:45:17;;;;;;;29.37;15.87;;;18.80;99.90;;;;;;4425878;28;658742;-68
2021/05/13 07:48:05;;;;;;;31.53;16.73;;;18.70;99.90;;;;;;4426365;28;658330;-66
2021/05/13 07:50:52;;;;;;;27.40;16.43;;;18.60;99.90;;;;;;4408291;28;659004;-67
2021/05/13 07:53:39;;;;;;;28.73;16.10;;;18.60;99.90;;;;;;4434993;28;659333;-66
2021/05/13 07:56:26;;;;;;;34.20;16.10;;;18.50;99.90;;;;;;4431238;28;658693;-67
2021/05/13 07:59:13;;;;;;;31.73;16.05;;;18.70;99.90;;;;;;4407885;28;658706;-66
2021/05/13 08:02:00;;;;;;;27.20;15.50;;;19.00;99.90;;;;;;4425195;28;659921;-67
2021/05/13 08:04:49;;;;;;;26.60;14.87;;;19.50;99.90;;;;;;4402191;28;658659;-68
2021/05/13 08:07:36;;;;;;;26.80;14.20;;;19.90;99.90;;;;;;4413701;28;658709;-67
2021/05/13 08:10:23;;;;;;;24.97;13.93;;;20.00;99.90;;;;;;4411128;28;658688;-67
2021/05/13 08:13:09;;;;;;;26.17;13.43;;;20.10;99.90;;;;;;4430915;28;660357;-66
2021/05/13 08:15:56;;;;;;;20.93;12.03;;;20.10;99.90;;;;;;4424003;28;658371;-66
2021/05/13 08:18:46;;;;;;;24.87;12.03;;;20.00;99.90;;;;;;4412153;28;659028;-66
2021/05/13 08:21:35;;;;;;;21.17;11.97;;;20.20;99.90;;;;;;4406524;28;658499;-66
2021/05/13 08:24:22;;;;;;;23.47;11.07;;;20.60;99.90;;;;;;4407591;28;658571;-68
2021/05/13 08:27:09;;;;;;;17.42;9.23;;;20.60;99.90;;;;;;4433988;28;658687;-66
2021/05/13 08:29:56;;;;;;;21.37;9.33;;;20.50;99.90;;;;;;4430844;28;657269;-66
2021/05/13 08:32:43;;;;;;;15.68;9.27;;;20.80;99.90;;;;;;4412489;28;657732;-66
2021/05/13 08:35:30;;;;;;;15.83;8.87;;;21.30;99.90;;;;;;4430919;28;658949;-67
2021/05/13 08:38:18;;;;;;;16.70;9.63;;;21.40;99.90;;;;;;4411317;28;657713;-67
2021/05/13 08:41:05;;;;;;;16.90;10.50;;;21.70;99.90;;;;;;4415815;28;659133;-66
2021/05/13 08:43:52;;;;;;;17.67;10.70;;;21.80;99.90;;;;;;4401748;28;658469;-67
2021/05/13 08:46:39;;;;;;;19.63;9.97;;;21.60;99.90;;;;;;4426549;28;659640;-67
2021/05/13 08:49:27;;;;;;;23.50;10.57;;;21.60;99.90;;;;;;4430610;28;657412;-67
2021/05/13 08:52:15;;;;;;;18.07;9.83;;;21.90;99.90;;;;;;4411133;28;660074;-66
2021/05/13 08:55:04;;;;;;;22.40;10.27;;;22.30;99.90;;;;;;4404682;28;657622;-68
2021/05/13 08:57:51;;;;;;;21.40;9.87;;;22.40;99.90;;;;;;4429616;28;658389;-67
2021/05/13 09:00:38;;;;;;;15.87;9.23;;;22.10;99.90;;;;;;4410254;28;657949;-67
2021/05/13 09:03:32;;;;;;;16.88;9.65;;;22.00;99.90;;;;;;4431283;28;659154;-66
2021/05/13 09:06:26;;;;;;;17.23;9.63;;;22.60;99.90;;;;;;4359933;28;658561;-67
2021/05/13 09:09:13;;;;;;;17.93;10.03;;;23.10;99.90;;;;;;4382982;28;657879;-67
2021/05/13 09:12:01;;;;;;;16.00;8.90;;;22.70;99.90;;;;;;4423273;28;658993;-67
2021/05/13 09:14:56;;;;;;;23.67;9.97;;;22.40;99.90;;;;;;4404354;28;657638;-67
2021/05/13 09:17:44;;;;;;;13.47;8.23;;;22.20;99.90;;;;;;4405532;28;657545;-67
2021/05/13 09:20:32;;;;;;;19.53;8.97;;;21.90;99.90;;;;;;4430138;28;658189;-66
2021/05/13 09:23:20;;;;;;;18.37;9.30;;;22.30;99.90;;;;;;4406306;28;659377;-66
2021/05/13 09:26:08;;;;;;;18.93;8.37;;;22.80;99.90;;;;;;4414142;28;657683;-68
2021/05/13 09:29:10;;;;;;;19.03;8.10;;;23.00;99.90;;;;;;4434396;28;657938;-67
2021/05/13 09:31:56;;;;;;;14.17;8.10;;;22.90;99.90;;;;;;4399458;28;657730;-67
2021/05/13 09:34:43;;;;;;;18.23;8.70;;;22.90;99.90;;;;;;4407670;28;657604;-67
2021/05/13 09:37:36;;;;;;;19.30;8.03;;;23.00;99.90;;;;;;4430702;28;657337;-68
2021/05/13 09:40:32;;;;;;;12.73;7.60;;;22.70;99.90;;;;;;4410556;28;658165;-67
2021/05/13 09:43:19;;;;;;;15.43;7.60;;;22.90;99.90;;;;;;4409975;28;657369;-67
2021/05/13 09:46:07;;;;;;;18.07;7.03;;;23.60;99.90;;;;;;4429419;28;657829;-68
2021/05/13 09:48:54;;;;;;;14.97;7.03;;;23.60;98.50;;;;;;4407180;28;658589;-66
2021/05/13 09:51:41;;;;;;;20.47;9.17;;;23.40;98.20;;;;;;4425978;28;657324;-67
2021/05/13 09:54:28;;;;;;;15.50;8.77;;;23.20;99.20;;;;;;4407399;28;657842;-66
2021/05/13 09:57:16;;;;;;;17.83;8.80;;;23.10;99.80;;;;;;4429794;28;658564;-67
2021/05/13 10:00:04;;;;;;;14.53;7.87;;;23.60;99.90;;;;;;4411325;28;657435;-67
2021/05/13 10:02:52;;;;;;;15.33;7.43;;;23.90;98.60;;;;;;4395884;28;658207;-67
2021/05/13 10:05:40;;;;;;;13.60;7.50;;;24.00;97.10;;;;;;4387367;28;657847;-67
2021/05/13 10:08:27;;;;;;;16.67;7.40;;;24.10;97.20;;;;;;4413217;28;658057;-68
2021/05/13 10:11:15;;;;;;;11.80;7.53;;;24.30;96.30;;;;;;4429607;28;657795;-67
2021/05/13 10:14:03;;;;;;;17.63;7.30;;;24.80;94.90;;;;;;4410337;28;657647;-68
2021/05/13 10:16:51;;;;;;;9.97;6.90;;;25.00;95.80;;;;;;4427089;28;658533;-67
2021/05/13 10:19:43;;;;;;;18.13;7.50;;;24.90;91.90;;;;;;4412032;28;656386;-68
2021/05/13 10:22:30;;;;;;;14.33;7.20;;;25.50;93.90;;;;;;4406000;28;658143;-67
2021/05/13 10:25:27;;;;;;;16.10;7.67;;;26.00;91.90;;;;;;4414080;28;658785;-68
2021/05/13 10:28:14;;;;;;;16.23;8.10;;;26.50;90.10;;;;;;4384257;28;659594;-67
2021/05/13 10:31:06;;;;;;;13.13;7.85;;;26.70;90.70;;;;;;4424134;28;657467;-67
2021/05/13 10:33:53;;;;;;;16.42;7.65;;;27.40;85.80;;;;;;4405397;28;658358;-67
2021/05/13 10:36:41;;;;;;;14.00;7.72;;;27.30;79.60;;;;;;4433841;28;658209;-67
2021/05/13 10:39:28;;;;;;;17.30;8.25;;;27.10;78.30;;;;;;4405960;28;658128;-67
2021/05/13 10:42:28;;;;;;;17.67;8.70;;;27.00;76.10;;;;;;4424249;28;659191;-67
2021/05/13 10:45:34;;;;;;;19.33;8.18;;;27.10;79.40;;;;;;4406692;28;657878;-67
2021/05/13 10:48:22;;;;;;;15.02;7.85;;;26.70;77.70;;;;;;4401733;28;658649;-67
2021/05/13 10:51:10;;;;;;;18.13;8.60;;;27.10;76.30;;;;;;4410884;28;658294;-69
2021/05/13 10:53:58;;;;;;;13.50;7.30;;;27.20;75.00;;;;;;4404161;28;657507;-68
2021/05/13 10:56:45;;;;;;;12.93;7.30;;;26.70;72.60;;;;;;4429720;28;658870;-67
2021/05/13 10:59:32;;;;;;;13.35;7.82;;;26.40;74.30;;;;;;4410132;28;657982;-67
2021/05/13 11:02:38;;;;;;;13.82;8.13;;;26.60;77.80;;;;;;4433953;28;658504;-67
2021/05/13 11:05:44;;;;;;;18.10;8.35;;;26.20;74.10;;;;;;4391575;28;658411;-67
2021/05/13 11:08:46;;;;;;;11.07;7.38;;;25.30;73.10;;;;;;4399049;28;657893;-67
2021/05/13 11:12:06;;;;;;;16.88;8.23;;;24.70;75.40;;;;;;4386025;28;658950;-67
2021/05/13 11:15:09;;;;;;;16.77;7.90;;;24.30;74.90;;;;;;4390432;28;657603;-67
2021/05/13 11:18:09;;;;;;;17.53;8.60;;;23.60;79.80;;;;;;4405496;28;657927;-67
2021/05/13 11:20:57;;;;;;;17.03;8.07;;;23.30;82.80;;;;;;4409849;28;658108;-67
2021/05/13 11:23:45;;;;;;;18.37;7.43;;;23.30;84.80;;;;;;4413630;28;659458;-67
2021/05/13 11:26:32;;;;;;;12.43;7.10;;;23.40;81.70;;;;;;4425306;28;657560;-68
2021/05/13 11:29:20;;;;;;;14.83;7.50;;;23.30;82.00;;;;;;4432458;28;657563;-66
2021/05/13 11:32:08;;;;;;;19.27;7.60;;;23.30;82.30;;;;;;4414537;28;657561;-68
2021/05/13 11:34:55;;;;;;;12.87;7.37;;;23.40;81.90;;;;;;4431945;28;659072;-66
2021/05/13 11:37:44;;;;;;;23.00;7.87;;;23.40;82.90;;;;;;4431809;28;657790;-67
2021/05/13 11:40:31;;;;;;;16.30;8.37;;;23.50;82.40;;;;;;4401571;28;657510;-67
2021/05/13 11:43:27;;;;;;;13.97;7.30;;;23.60;82.40;;;;;;4407887;28;657217;-67
2021/05/13 11:46:18;;;;;;;17.47;8.40;;;23.70;80.90;;;;;;4385524;28;658630;-67
2021/05/13 11:49:06;;;;;;;17.70;8.10;;;23.50;82.20;;;;;;4403763;28;658361;-67
2021/05/13 11:51:52;;;;;;;10.13;7.00;;;23.40;82.00;;;;;;4408565;28;657979;-67
2021/05/13 11:54:40;;;;;;;17.40;6.73;;;23.40;82.50;;;;;;4423725;28;659449;-67
2021/05/13 11:57:27;;;;;;;12.27;6.37;;;23.10;83.50;;;;;;4406465;28;657956;-68
2021/05/13 12:00:16;;;;;;;17.63;6.30;;;23.20;84.80;;;;;;4435237;28;657888;-68
2021/05/13 12:03:14;;;;;;;18.53;7.57;;;23.70;84.10;;;;;;4408044;28;657777;-67
2021/05/13 12:06:01;;;;;;;9.73;5.90;;;24.20;85.20;;;;;;4408831;28;658116;-66
2021/05/13 12:08:48;;;;;;;11.50;5.73;;;24.30;81.50;;;;;;4410709;28;660425;-67
2021/05/13 12:11:36;;;;;;;12.60;6.43;;;24.40;81.60;;;;;;4435495;28;658739;-67
2021/05/13 12:14:26;;;;;;;15.07;8.00;;;24.60;83.80;;;;;;4413222;28;657726;-67
2021/05/13 12:17:13;;;;;;;15.67;8.83;;;24.70;82.90;;;;;;4408512;28;658630;-67
2021/05/13 12:20:00;;;;;;;19.83;9.57;;;24.30;83.10;;;;;;4431537;28;658931;-66
2021/05/13 12:22:47;;;;;;;19.13;8.90;;;23.80;84.20;;;;;;4403368;28;658023;-67
2021/05/13 12:25:35;;;;;;;15.50;9.33;;;23.50;84.40;;;;;;4434990;28;659103;-66
2021/05/13 12:28:22;;;;;;;16.37;8.23;;;23.00;86.00;;;;;;4412612;28;657741;-67
2021/05/13 12:31:09;;;;;;;13.10;8.37;;;22.70;86.50;;;;;;4435171;28;659089;-67
2021/05/13 12:33:58;;;;;;;13.40;8.53;;;22.50;89.40;;;;;;4428810;28;657400;-66
2021/05/13 12:36:50;;;;;;;17.87;8.60;;;22.10;88.70;;;;;;4405911;28;658756;-67
2021/05/13 12:39:38;;;;;;;12.27;8.07;;;21.70;90.10;;;;;;4404918;28;657463;-67
2021/05/13 12:42:26;;;;;;;17.10;8.17;;;21.40;91.00;;;;;;4432465;28;658295;-66
2021/05/13 12:45:14;;;;;;;13.77;8.17;;;21.20;91.60;;;;;;4404320;28;657706;-68
2021/05/13 12:48:01;;;;;;;30.27;15.37;;;21.10;92.60;;;;;;4426914;28;657802;-66
2021/05/13 12:50:59;;;;;;;25.57;16.00;;;20.80;95.40;;;;;;4406667;28;658517;-67
2021/05/13 12:53:48;;;;;;;25.97;14.83;;;20.10;98.90;;;;;;4403026;28;659294;-66
2021/05/13 12:56:35;;;;;;;26.33;15.20;;;19.70;99.90;;;;;;4405961;28;660390;-66
2021/05/13 12:59:27;;;;;;;25.67;13.90;;;19.40;99.90;;;;;;4404079;28;658575;-68
2021/05/13 13:02:21;;;;;;;27.00;14.67;;;19.30;99.90;;;;;;4405938;28;660442;-66
2021/05/13 13:05:09;;;;;;;27.57;15.90;;;19.20;99.90;;;;;;4382920;28;659141;-67
2021/05/13 13:07:56;;;;;;;25.57;14.13;;;19.10;99.90;;;;;;4425954;28;659039;-67
2021/05/13 13:10:45;;;;;;;24.53;13.70;;;18.90;99.90;;;;;;4410152;28;658489;-66
2021/05/13 13:13:41;;;;;;;21.67;14.33;;;18.80;99.90;;;;;;4428854;28;658356;-66
2021/05/13 13:16:28;;;;;;;22.43;13.53;;;18.80;99.90;;;;;;4383837;28;659157;-66
2021/05/13 13:19:16;;;;;;;25.47;14.30;;;18.60;99.90;;;;;;4428899;28;659642;-66
2021/05/13 13:22:40;;;;;;;27.53;15.80;;;18.50;99.90;;;;;;4410100;28;658556;-66
2021/05/13 13:25:27;;;;;;;25.10;12.63;;;18.10;99.90;;;;;;4390008;28;658423;-67
2021/05/13 13:28:16;;;;;;;24.27;13.20;;;17.60;99.90;;;;;;4428396;28;658918;-66
2021/05/13 13:31:05;;;;;;;24.53;14.10;;;17.30;99.90;;;;;;4405726;28;659212;-66
2021/05/13 13:33:56;;;;;;;22.73;12.63;;;17.20;99.90;;;;;;4420559;28;658690;-68
2021/05/13 13:36:43;;;;;;;20.93;12.53;;;17.30;99.90;;;;;;4409689;28;659222;-66
2021/05/13 13:39:30;;;;;;;23.60;13.13;;;17.20;99.90;;;;;;4427004;28;659681;-66
2021/05/13 13:42:32;;;;;;;22.10;12.43;;;17.20;99.90;;;;;;4407556;28;658613;-68
2021/05/13 13:45:20;;;;;;;23.10;12.77;;;17.20;99.90;;;;;;4409678;28;658887;-66
2021/05/13 13:48:08;;;;;;;20.03;12.77;;;17.20;99.90;;;;;;4409129;28;658358;-67
2021/05/13 13:50:56;;;;;;;21.27;12.80;;;17.20;99.90;;;;;;4432352;28;658966;-66
2021/05/13 13:53:44;;;;;;;19.93;12.67;;;17.10;99.90;;;;;;4403107;28;659063;-66
2021/05/13 13:56:31;;;;;;;23.50;12.80;;;17.10;99.90;;;;;;4430906;28;658587;-66
2021/05/13 13:59:18;;;;;;;23.90;12.77;;;17.10;99.90;;;;;;4405422;28;659060;-66
2021/05/13 14:02:06;;;;;;;18.70;12.17;;;17.20;99.90;;;;;;4426315;28;659944;-66
2021/05/13 14:04:54;;;;;;;20.07;12.40;;;17.30;99.90;;;;;;4406426;28;658529;-67
2021/05/13 14:07:41;;;;;;;20.13;12.07;;;17.30;99.90;;;;;;4425475;28;659289;-67
2021/05/13 14:10:29;;;;;;;25.27;12.30;;;17.40;99.90;;;;;;4408161;28;658499;-66